Time;durP1;ratioP1;P1;durP2;ratioP2;P2;SDS_P1;SDS_P2;PMS_P1;PMS_P2;Temp;Humidity;BMP_temperature;BMP_pressure;BME280_temperature;BME280_humidity;BME280_pressure;Samples;Min_cycle;Max_cycle;Signal;HPM_P1;HPM_P2
2022/11/19 00:00:35;;;;;;;81.75;64.68;;;;;;;;;;5074260;28;20515;-70
2022/11/19 00:03:01;;;;;;;94.32;69.13;;;;;;;;;;5071403;28;20479;-70
2022/11/19 00:05:26;;;;;;;83.50;69.40;;;;;;;;;;5078145;28;20027;-70
2022/11/19 00:07:51;;;;;;;75.82;63.53;;;;;;;;;;5079181;28;20118;-71
2022/11/19 00:10:17;;;;;;;75.07;61.75;;;;;;;;;;5079736;28;20107;-70
2022/11/19 00:12:54;;;;;;;71.05;55.28;;;;;;;;;;5073241;28;20111;-72
2022/11/19 00:15:20;;;;;;;97.00;73.80;;;;;;;;;;5071614;28;20706;-71
2022/11/19 00:17:45;;;;;;;123.50;98.53;;;;;;;;;;5073855;28;20111;-70
2022/11/19 00:20:11;;;;;;;81.40;62.17;;;;;;;;;;5079136;28;20334;-70
2022/11/19 00:22:36;;;;;;;64.78;52.70;;;;;;;;;;5076996;28;20031;-70
2022/11/19 00:25:02;;;;;;;88.82;67.25;;;;;;;;;;5072301;28;20469;-70
2022/11/19 00:27:27;;;;;;;91.13;68.68;;;;;;;;;;5080928;28;20948;-70
2022/11/19 00:29:53;;;;;;;78.28;59.30;;;;;;;;;;5077201;28;20024;-70
2022/11/19 00:32:18;;;;;;;65.07;50.17;;;;;;;;;;5070284;28;20050;-70
2022/11/19 00:34:43;;;;;;;39.63;32.50;;;;;;;;;;5076166;28;20020;-71
2022/11/19 00:37:09;;;;;;;49.97;39.50;;;;;;;;;;5077759;28;20443;-71
2022/11/19 00:39:34;;;;;;;45.88;36.92;;;;;;;;;;5072655;28;20048;-70
2022/11/19 00:41:59;;;;;;;31.90;26.83;;;;;;;;;;5071011;28;20023;-70
2022/11/19 00:44:25;;;;;;;44.20;37.42;;;;;;;;;;5076713;28;20089;-71
2022/11/19 00:46:50;;;;;;;45.10;38.85;;;;;;;;;;5068529;28;20089;-71
2022/11/19 00:49:15;;;;;;;51.88;40.20;;;;;;;;;;5071722;28;20020;-71
2022/11/19 00:51:41;;;;;;;45.28;38.67;;;;;;;;;;5077348;28;20111;-70
2022/11/19 00:54:06;;;;;;;37.15;28.80;;;;;;;;;;5078060;28;20924;-71
2022/11/19 00:56:31;;;;;;;39.05;31.65;;;;;;;;;;5076198;28;20035;-70
2022/11/19 00:58:57;;;;;;;39.80;32.45;;;;;;;;;;5070202;28;20604;-71
2022/11/19 01:01:23;;;;;;;26.67;22.30;;;;;;;;;;5074429;28;20035;-71
2022/11/19 01:03:49;;;;;;;12.18;9.57;;;;;;;;;;5071809;28;20023;-70
2022/11/19 01:06:15;;;;;;;16.35;13.65;;;;;;;;;;5076697;28;20032;-72
2022/11/19 01:08:41;;;;;;;18.65;15.07;;;;;;;;;;5068632;28;20048;-71
2022/11/19 01:11:07;;;;;;;14.43;10.77;;;;;;;;;;5076539;28;20048;-71
2022/11/19 01:13:33;;;;;;;11.75;9.93;;;;;;;;;;5075944;28;20016;-71
2022/11/19 01:15:59;;;;;;;12.88;11.38;;;;;;;;;;5074402;28;22404;-71
2022/11/19 01:18:24;;;;;;;18.75;14.68;;;;;;;;;;5069154;28;20048;-73
2022/11/19 01:20:50;;;;;;;21.85;14.88;;;;;;;;;;5073871;28;20028;-73
2022/11/19 01:23:15;;;;;;;26.33;19.73;;;;;;;;;;5075843;28;20355;-71
2022/11/19 01:25:40;;;;;;;22.60;15.65;;;;;;;;;;5075964;28;20028;-71
2022/11/19 01:28:06;;;;;;;28.40;22.65;;;;;;;;;;5075841;28;20039;-72
2022/11/19 01:30:31;;;;;;;38.97;31.75;;;;;;;;;;5076540;28;20034;-70
2022/11/19 01:32:57;;;;;;;40.22;30.90;;;;;;;;;;5070658;28;20032;-72
2022/11/19 01:35:22;;;;;;;34.83;26.48;;;;;;;;;;5072205;28;20023;-70
2022/11/19 01:37:47;;;;;;;33.72;25.10;;;;;;;;;;5075815;28;20027;-71
2022/11/19 01:40:13;;;;;;;49.88;38.50;;;;;;;;;;5077105;28;20035;-71
2022/11/19 01:42:54;;;;;;;37.03;26.75;;;;;;;;;;5073007;28;20025;-71
2022/11/19 01:45:28;;;;;;;17.30;15.40;;;;;;;;;;5080420;28;20024;-70
2022/11/19 01:47:55;;;;;;;16.65;14.00;;;;;;;;;;5072559;28;20024;-71
2022/11/19 01:50:21;;;;;;;25.35;20.10;;;;;;;;;;5072684;28;20097;-70
2022/11/19 01:52:47;;;;;;;26.83;21.27;;;;;;;;;;5075912;28;20446;-70
2022/11/19 01:55:12;;;;;;;24.10;19.92;;;;;;;;;;5070287;28;20023;-71
2022/11/19 01:57:38;;;;;;;20.05;16.50;;;;;;;;;;5077332;28;20016;-72
2022/11/19 02:00:05;;;;;;;41.00;29.52;;;;;;;;;;5069152;28;20143;-73
2022/11/19 02:02:30;;;;;;;62.65;44.90;;;;;;;;;;5072882;28;20020;-71
2022/11/19 02:04:56;;;;;;;47.20;35.47;;;;;;;;;;5078339;28;20039;-70
2022/11/19 02:07:27;;;;;;;28.05;22.75;;;;;;;;;;5073768;28;20024;-71
2022/11/19 02:09:53;;;;;;;19.00;16.75;;;;;;;;;;5069463;28;20020;-71
2022/11/19 02:12:24;;;;;;;20.05;15.82;;;;;;;;;;5073157;28;20024;-70
2022/11/19 02:14:55;;;;;;;22.05;19.42;;;;;;;;;;5074125;28;20440;-72
2022/11/19 02:17:24;;;;;;;27.92;22.65;;;;;;;;;;5069804;28;20139;-72
2022/11/19 02:20:07;;;;;;;27.30;23.13;;;;;;;;;;5075482;28;20048;-71
2022/11/19 02:22:45;;;;;;;22.92;20.38;;;;;;;;;;5075253;28;20435;-70
2022/11/19 02:25:16;;;;;;;13.73;12.00;;;;;;;;;;5076806;28;20028;-71
2022/11/19 02:27:47;;;;;;;20.65;16.08;;;;;;;;;;5076257;28;20098;-72
2022/11/19 02:30:17;;;;;;;17.27;14.18;;;;;;;;;;5075869;28;20048;-71
2022/11/19 02:32:43;;;;;;;37.20;25.45;;;;;;;;;;5078511;28;20115;-72
2022/11/19 02:35:25;;;;;;;26.92;21.10;;;;;;;;;;5075457;28;20119;-71
2022/11/19 02:38:03;;;;;;;22.67;18.25;;;;;;;;;;5082802;28;20032;-71
2022/11/19 02:40:35;;;;;;;25.95;21.58;;;;;;;;;;5068395;28;20024;-71
2022/11/19 02:43:06;;;;;;;23.95;18.52;;;;;;;;;;5069912;28;20028;-71
2022/11/19 02:45:48;;;;;;;17.35;14.68;;;;;;;;;;5081254;28;20478;-71
2022/11/19 02:48:16;;;;;;;13.55;12.13;;;;;;;;;;5081452;28;20060;-71
2022/11/19 02:50:47;;;;;;;11.95;10.30;;;;;;;;;;5079576;28;20028;-71
2022/11/19 02:53:12;;;;;;;10.77;9.45;;;;;;;;;;5079868;28;20016;-71
2022/11/19 02:55:38;;;;;;;10.27;9.10;;;;;;;;;;5079664;28;20020;-71
2022/11/19 03:04:28;;;;;;;11.95;10.18;;;;;;;;;;5079123;28;20032;-70
2022/11/19 03:06:33;;;;;;;8.77;7.88;;;;;;;;;;5078854;28;20042;-71
2022/11/19 03:08:59;;;;;;;7.38;6.68;;;;;;;;;;5078952;28;20024;-70
2022/11/19 03:11:29;;;;;;;6.57;6.00;;;;;;;;;;5082646;28;20032;-73
2022/11/19 03:16:58;;;;;;;7.90;7.20;;;;;;;;;;5080328;28;20040;-71
2022/11/19 03:19:24;;;;;;;9.07;8.10;;;;;;;;;;5043633;28;20165;-71
2022/11/19 03:21:56;;;;;;;6.38;5.78;;;;;;;;;;5070618;28;20056;-72
2022/11/19 03:24:51;;;;;;;6.20;5.70;;;;;;;;;;5080457;28;20455;-70
2022/11/19 03:27:37;;;;;;;7.93;6.82;;;;;;;;;;5065386;28;20043;-70
2022/11/19 03:30:03;;;;;;;10.45;8.77;;;;;;;;;;5082214;28;20050;-70
2022/11/19 03:32:31;;;;;;;12.20;10.00;;;;;;;;;;5081090;28;20435;-71
2022/11/19 03:34:58;;;;;;;11.20;8.57;;;;;;;;;;5079112;28;20051;-71
2022/11/19 03:37:24;;;;;;;8.32;7.53;;;;;;;;;;5064778;28;20012;-71
2022/11/19 03:39:50;;;;;;;9.57;8.40;;;;;;;;;;5066600;28;20027;-71
2022/11/19 03:42:17;;;;;;;12.55;11.23;;;;;;;;;;5065560;28;21161;-71
2022/11/19 03:44:45;;;;;;;13.85;11.48;;;;;;;;;;5066939;28;20024;-71
2022/11/19 03:47:12;;;;;;;13.68;10.45;;;;;;;;;;5066393;28;20033;-71
2022/11/19 03:49:40;;;;;;;10.55;8.60;;;;;;;;;;5064662;28;20024;-71
2022/11/19 03:52:09;;;;;;;10.35;8.50;;;;;;;;;;5049875;28;20413;-71
2022/11/19 03:54:34;;;;;;;8.70;7.63;;;;;;;;;;5067924;28;20032;-71
2022/11/19 03:57:00;;;;;;;6.53;5.65;;;;;;;;;;5070055;28;20073;-72
2022/11/19 03:59:26;;;;;;;11.77;8.35;;;;;;;;;;5069857;28;20027;-71
2022/11/19 04:01:52;;;;;;;24.58;14.70;;;;;;;;;;5069150;28;20422;-71
2022/11/19 04:04:36;;;;;;;10.93;8.23;;;;;;;;;;5052663;28;20358;-70
2022/11/19 04:07:23;;;;;;;5.80;5.25;;;;;;;;;;5067766;28;20028;-69
2022/11/19 04:09:49;;;;;;;10.68;8.55;;;;;;;;;;5066331;28;20028;-71
2022/11/19 04:12:21;;;;;;;8.20;7.40;;;;;;;;;;5065459;28;20046;-71
2022/11/19 04:14:47;;;;;;;7.50;6.22;;;;;;;;;;5065764;28;20032;-71
2022/11/19 04:17:13;;;;;;;8.10;5.50;;;;;;;;;;5065058;28;20092;-71
2022/11/19 04:19:38;;;;;;;7.15;6.45;;;;;;;;;;5065061;28;20044;-72
2022/11/19 04:22:03;;;;;;;7.15;5.95;;;;;;;;;;5065607;28;20435;-70
2022/11/19 04:24:29;;;;;;;9.15;6.70;;;;;;;;;;5066950;28;20031;-70
2022/11/19 04:26:54;;;;;;;6.05;4.90;;;;;;;;;;5065244;28;20021;-71
2022/11/19 04:29:20;;;;;;;6.32;4.88;;;;;;;;;;5065687;28;20064;-71
2022/11/19 04:31:45;;;;;;;6.50;5.78;;;;;;;;;;5066653;28;20073;-71
2022/11/19 04:34:10;;;;;;;8.10;6.18;;;;;;;;;;5065487;28;20431;-71
2022/11/19 04:36:36;;;;;;;13.45;10.27;;;;;;;;;;5065799;28;20082;-73
2022/11/19 04:39:01;;;;;;;15.85;13.40;;;;;;;;;;5065706;28;20530;-71
2022/11/19 04:41:27;;;;;;;14.52;12.80;;;;;;;;;;5065133;28;20031;-72
2022/11/19 04:43:52;;;;;;;15.70;13.50;;;;;;;;;;5068656;28;20058;-71
2022/11/19 04:46:17;;;;;;;20.67;15.48;;;;;;;;;;5077631;28;20034;-71
2022/11/19 04:48:43;;;;;;;12.85;10.88;;;;;;;;;;5077084;28;20032;-71
2022/11/19 04:51:08;;;;;;;9.25;7.65;;;;;;;;;;5080284;28;20709;-71
2022/11/19 04:53:33;;;;;;;11.32;8.73;;;;;;;;;;5078556;28;20087;-71
2022/11/19 04:55:59;;;;;;;10.02;8.40;;;;;;;;;;5078678;28;20024;-71
2022/11/19 04:58:24;;;;;;;19.13;14.45;;;;;;;;;;5078595;28;20028;-71
2022/11/19 05:00:49;;;;;;;17.13;14.82;;;;;;;;;;5079496;28;20020;-71
2022/11/19 05:03:15;;;;;;;13.23;11.40;;;;;;;;;;5074928;28;20008;-71
2022/11/19 05:05:40;;;;;;;18.00;11.85;;;;;;;;;;5074264;28;20458;-71
2022/11/19 05:08:05;;;;;;;11.10;9.73;;;;;;;;;;5079687;28;20028;-70
2022/11/19 05:10:31;;;;;;;11.85;9.13;;;;;;;;;;5078454;28;20020;-70
2022/11/19 05:12:56;;;;;;;12.52;10.38;;;;;;;;;;5076875;28;20081;-70
2022/11/19 05:15:22;;;;;;;13.25;11.68;;;;;;;;;;5079618;28;20031;-70
2022/11/19 05:17:47;;;;;;;16.40;14.50;;;;;;;;;;5076150;28;20106;-70
2022/11/19 05:20:13;;;;;;;16.60;14.98;;;;;;;;;;5076692;28;20066;-71
2022/11/19 05:22:38;;;;;;;26.73;20.00;;;;;;;;;;5077571;28;20036;-71
2022/11/19 05:25:03;;;;;;;30.70;22.13;;;;;;;;;;5079059;28;20035;-71
2022/11/19 05:27:29;;;;;;;37.40;25.23;;;;;;;;;;5078154;28;20035;-71
2022/11/19 05:29:54;;;;;;;30.33;21.65;;;;;;;;;;5077888;28;20016;-71
2022/11/19 05:32:19;;;;;;;27.75;19.90;;;;;;;;;;5078643;28;20028;-71
2022/11/19 05:34:45;;;;;;;18.65;16.05;;;;;;;;;;5077936;28;20065;-70
2022/11/19 05:37:10;;;;;;;18.10;13.52;;;;;;;;;;5078806;28;20028;-70
2022/11/19 05:39:35;;;;;;;19.65;15.00;;;;;;;;;;5077013;28;20043;-70
2022/11/19 05:42:01;;;;;;;21.33;18.02;;;;;;;;;;5079429;28;20084;-70
2022/11/19 05:44:26;;;;;;;24.10;20.65;;;;;;;;;;5076879;28;20419;-69
2022/11/19 05:46:51;;;;;;;21.30;17.63;;;;;;;;;;5079881;28;20098;-71
2022/11/19 05:49:17;;;;;;;24.55;18.05;;;;;;;;;;5078330;28;20039;-71
2022/11/19 05:51:42;;;;;;;27.40;19.33;;;;;;;;;;5079159;28;20035;-70
2022/11/19 05:54:07;;;;;;;29.20;25.92;;;;;;;;;;5075105;28;20347;-70
2022/11/19 05:56:33;;;;;;;22.58;20.20;;;;;;;;;;5079208;28;20020;-70
2022/11/19 05:58:58;;;;;;;18.65;14.82;;;;;;;;;;5075724;28;20024;-70
2022/11/19 06:01:27;;;;;;;39.08;29.80;;;;;;;;;;5068063;28;20023;-71
2022/11/19 06:03:53;;;;;;;33.50;26.35;;;;;;;;;;5065652;28;20024;-72
2022/11/19 06:06:18;;;;;;;29.65;24.80;;;;;;;;;;5068122;28;20089;-71
2022/11/19 06:08:43;;;;;;;29.52;25.50;;;;;;;;;;5068051;28;20031;-72
2022/11/19 06:11:46;;;;;;;19.17;16.83;;;;;;;;;;5069634;28;20395;-71
2022/11/19 06:13:57;;;;;;;12.90;11.60;;;;;;;;;;5071517;28;20063;-70
2022/11/19 06:16:22;;;;;;;16.52;13.60;;;;;;;;;;5069586;28;20440;-71
2022/11/19 06:18:48;;;;;;;13.85;12.48;;;;;;;;;;5070919;28;20113;-74
2022/11/19 06:21:13;;;;;;;13.32;11.93;;;;;;;;;;5071949;28;20016;-72
2022/11/19 06:23:38;;;;;;;13.50;12.07;;;;;;;;;;5071858;28;20485;-71
2022/11/19 06:26:06;;;;;;;13.00;11.80;;;;;;;;;;5072139;28;20708;-71
2022/11/19 06:28:31;;;;;;;13.15;11.43;;;;;;;;;;5071341;28;20036;-70
2022/11/19 06:30:56;;;;;;;15.13;13.57;;;;;;;;;;5071883;28;20038;-70
2022/11/19 06:33:22;;;;;;;16.92;15.18;;;;;;;;;;5071096;28;20028;-70
2022/11/19 06:35:47;;;;;;;21.75;19.25;;;;;;;;;;5071690;28;20355;-70
2022/11/19 06:38:13;;;;;;;31.90;26.17;;;;;;;;;;5072081;28;20035;-70
2022/11/19 06:40:38;;;;;;;25.83;20.70;;;;;;;;;;5069754;28;20039;-70
2022/11/19 06:43:04;;;;;;;18.25;16.35;;;;;;;;;;5071376;28;20435;-70
2022/11/19 06:45:29;;;;;;;18.88;16.88;;;;;;;;;;5070731;28;20024;-70
2022/11/19 06:47:54;;;;;;;28.45;25.35;;;;;;;;;;5071950;28;20032;-71
2022/11/19 06:50:20;;;;;;;25.98;21.20;;;;;;;;;;5070305;28;20115;-72
2022/11/19 06:52:45;;;;;;;43.22;38.15;;;;;;;;;;5070333;28;20048;-74
2022/11/19 06:55:12;;;;;;;21.10;18.88;;;;;;;;;;5069015;28;20024;-71
2022/11/19 06:57:37;;;;;;;33.42;27.45;;;;;;;;;;5069391;28;20028;-70
2022/11/19 07:00:03;;;;;;;30.48;24.77;;;;;;;;;;5069675;28;20081;-71
2022/11/19 07:02:28;;;;;;;26.10;21.23;;;;;;;;;;5068240;28;20359;-71
2022/11/19 07:04:54;;;;;;;16.02;14.32;;;;;;;;;;5068067;28;20363;-71
2022/11/19 07:07:19;;;;;;;18.70;13.60;;;;;;;;;;5067030;28;20027;-71
2022/11/19 07:09:44;;;;;;;18.88;16.98;;;;;;;;;;5070082;28;20028;-71
2022/11/19 07:12:10;;;;;;;19.58;17.45;;;;;;;;;;5070377;28;20028;-71
2022/11/19 07:14:35;;;;;;;14.07;12.77;;;;;;;;;;5080322;28;20036;-71
2022/11/19 07:17:00;;;;;;;11.25;10.15;;;;;;;;;;5080789;28;20028;-72
2022/11/19 07:19:26;;;;;;;10.07;9.10;;;;;;;;;;5078231;28;20495;-71
2022/11/19 07:21:51;;;;;;;32.30;28.02;;;;;;;;;;5081145;28;20028;-70
2022/11/19 07:24:16;;;;;;;22.02;20.02;;;;;;;;;;5081519;28;21469;-71
2022/11/19 07:26:42;;;;;;;19.38;17.63;;;;;;;;;;5081418;28;20028;-71
2022/11/19 07:29:10;;;;;;;37.17;33.97;;;;;;;;;;5076575;28;20032;-70
2022/11/19 07:31:35;;;;;;;23.15;21.05;;;;;;;;;;5079139;28;20022;-70
2022/11/19 07:34:01;;;;;;;26.40;23.70;;;;;;;;;;5070851;28;20023;-70
2022/11/19 07:36:26;;;;;;;9.48;8.57;;;;;;;;;;5078716;28;20439;-70
2022/11/19 07:38:51;;;;;;;11.63;10.52;;;;;;;;;;5080737;28;20023;-70
2022/11/19 07:44:02;;;;;;;8.48;7.57;;;;;;;;;;5079816;28;20035;-72
2022/11/19 07:46:27;;;;;;;9.77;8.18;;;;;;;;;;5080939;28;20032;-70
2022/11/19 07:48:53;;;;;;;6.47;5.88;;;;;;;;;;5077648;28;20043;-72
2022/11/19 07:51:19;;;;;;;12.30;11.13;;;;;;;;;;5079947;28;20023;-72
2022/11/19 07:53:44;;;;;;;7.82;7.07;;;;;;;;;;5081552;28;20032;-70
2022/11/19 07:56:09;;;;;;;16.45;13.23;;;;;;;;;;5082010;28;20350;-70
2022/11/19 07:58:35;;;;;;;15.45;12.77;;;;;;;;;;5080305;28;20130;-70
2022/11/19 08:01:10;;;;;;;10.85;9.85;;;;;;;;;;5080158;28;20043;-72
2022/11/19 08:03:36;;;;;;;17.17;13.73;;;;;;;;;;5069917;28;20436;-69
2022/11/19 08:06:05;;;;;;;19.73;16.52;;;;;;;;;;5080133;28;20166;-70
2022/11/19 08:08:31;;;;;;;12.57;10.02;;;;;;;;;;5079460;28;20059;-71
2022/11/19 08:10:56;;;;;;;10.77;8.15;;;;;;;;;;5077605;28;20665;-70
2022/11/19 08:13:21;;;;;;;6.90;6.28;;;;;;;;;;5077846;28;20107;-70
2022/11/19 08:15:47;;;;;;;20.58;15.23;;;;;;;;;;5080538;28;20059;-71
2022/11/19 08:18:12;;;;;;;13.85;10.07;;;;;;;;;;5079216;28;20091;-71
2022/11/19 08:20:47;;;;;;;12.90;10.90;;;;;;;;;;5080898;28;20031;-70
2022/11/19 08:23:12;;;;;;;9.35;8.45;;;;;;;;;;5080830;28;20043;-71
2022/11/19 08:25:38;;;;;;;20.80;17.65;;;;;;;;;;5079646;28;20028;-71
2022/11/19 08:28:03;;;;;;;31.77;23.88;;;;;;;;;;5078435;28;20123;-70
2022/11/19 08:30:29;;;;;;;26.38;19.45;;;;;;;;;;5079152;28;20114;-70
2022/11/19 08:32:55;;;;;;;30.63;22.20;;;;;;;;;;5077696;28;20028;-71
2022/11/19 08:35:20;;;;;;;14.00;9.95;;;;;;;;;;5072552;28;20028;-71
2022/11/19 08:37:46;;;;;;;17.10;12.60;;;;;;;;;;5078765;28;20472;-71
2022/11/19 08:40:12;;;;;;;13.80;12.30;;;;;;;;;;5078734;28;20029;-71
2022/11/19 08:45:21;;;;;;;13.48;12.07;;;;;;;;;;5078204;28;20161;-71
2022/11/19 08:47:47;;;;;;;6.57;5.10;;;;;;;;;;5080066;28;20122;-72
2022/11/19 08:50:12;;;;;;;7.47;6.15;;;;;;;;;;5081402;28;20023;-73
2022/11/19 08:52:37;;;;;;;7.28;5.55;;;;;;;;;;5070463;28;20017;-72
2022/11/19 08:55:03;;;;;;;5.70;4.60;;;;;;;;;;5067815;28;20024;-71
2022/11/19 08:57:28;;;;;;;9.65;7.90;;;;;;;;;;5065844;28;22169;-72
2022/11/19 08:59:53;;;;;;;8.15;6.95;;;;;;;;;;5069349;28;20032;-71
2022/11/19 09:02:19;;;;;;;9.35;7.85;;;;;;;;;;5066262;28;20103;-72
2022/11/19 09:04:44;;;;;;;7.82;7.05;;;;;;;;;;5065971;28;20051;-71
2022/11/19 09:07:09;;;;;;;6.90;6.20;;;;;;;;;;5071849;28;20044;-70
2022/11/19 09:09:35;;;;;;;31.48;28.27;;;;;;;;;;5068116;28;20431;-72
2022/11/19 09:12:00;;;;;;;11.10;9.98;;;;;;;;;;5069993;28;20496;-70
2022/11/19 09:14:26;;;;;;;12.00;10.70;;;;;;;;;;5075581;28;20371;-71
2022/11/19 09:16:51;;;;;;;9.38;8.48;;;;;;;;;;5067954;28;20032;-74
2022/11/19 09:19:16;;;;;;;3.75;3.45;;;;;;;;;;5078960;28;20450;-72
2022/11/19 09:21:42;;;;;;;6.32;5.72;;;;;;;;;;5081511;28;21090;-72
2022/11/19 09:24:07;;;;;;;4.43;4.03;;;;;;;;;;5062890;28;20039;-70
2022/11/19 09:26:32;;;;;;;3.65;3.30;;;;;;;;;;5079953;28;20453;-71
2022/11/19 09:28:58;;;;;;;6.95;5.20;;;;;;;;;;5079831;28;20060;-70
2022/11/19 09:31:23;;;;;;;5.88;5.07;;;;;;;;;;5077163;28;20028;-72
2022/11/19 09:33:49;;;;;;;7.35;6.60;;;;;;;;;;5074450;28;20020;-69
2022/11/19 09:36:16;;;;;;;14.27;11.50;;;;;;;;;;5075693;28;20069;-72
2022/11/19 09:38:42;;;;;;;7.65;6.25;;;;;;;;;;5066549;28;20051;-73
2022/11/19 09:41:16;;;;;;;35.13;25.15;;;;;;;;;;5074740;28;20123;-71
2022/11/19 09:43:47;;;;;;;9.20;7.70;;;;;;;;;;5073404;28;20427;-72
2022/11/19 09:46:21;;;;;;;21.38;19.27;;;;;;;;;;5067235;28;20446;-72
2022/11/19 09:48:47;;;;;;;10.80;9.82;;;;;;;;;;5063972;28;20020;-72
2022/11/19 09:51:17;;;;;;;20.40;16.95;;;;;;;;;;5066185;28;20023;-71
2022/11/19 09:53:51;;;;;;;6.78;6.07;;;;;;;;;;5065059;28;20027;-72
2022/11/19 09:56:20;;;;;;;4.97;4.47;;;;;;;;;;5066704;28;20111;-73
2022/11/19 09:58:46;;;;;;;2.35;2.17;;;;;;;;;;5066206;28;20075;-71
2022/11/19 10:01:13;;;;;;;11.13;9.85;;;;;;;;;;5071350;28;20047;-71
2022/11/19 10:03:39;;;;;;;4.47;3.40;;;;;;;;;;5068142;28;20027;-71
2022/11/19 10:06:04;;;;;;;37.63;31.73;;;;;;;;;;5078435;28;20036;-71
2022/11/19 10:08:30;;;;;;;5.90;5.00;;;;;;;;;;5079871;28;20046;-71
2022/11/19 10:11:01;;;;;;;8.65;7.78;;;;;;;;;;5078912;28;20374;-72
2022/11/19 10:13:45;;;;;;;7.50;6.22;;;;;;;;;;5068146;28;20101;-71
2022/11/19 10:16:18;;;;;;;5.25;4.75;;;;;;;;;;5079847;28;20048;-73
2022/11/19 10:18:52;;;;;;;45.85;36.80;;;;;;;;;;5071469;28;20358;-74
2022/11/19 10:21:25;;;;;;;9.05;8.10;;;;;;;;;;5082506;28;20444;-72
2022/11/19 10:23:54;;;;;;;5.00;4.55;;;;;;;;;;5082178;28;20516;-71
2022/11/19 10:26:31;;;;;;;13.23;9.65;;;;;;;;;;5081142;28;20432;-70
2022/11/19 10:28:57;;;;;;;9.20;8.25;;;;;;;;;;5081768;28;20036;-71
2022/11/19 10:31:57;;;;;;;10.20;6.25;;;;;;;;;;5081634;28;20520;-72
2022/11/19 10:34:28;;;;;;;7.60;6.22;;;;;;;;;;4990015;28;20131;-73
2022/11/19 10:36:56;;;;;;;9.30;5.82;;;;;;;;;;4999539;28;20073;-71
2022/11/19 10:39:30;;;;;;;32.45;29.15;;;;;;;;;;5000353;28;20038;-70
2022/11/19 10:42:17;;;;;;;5.15;4.63;;;;;;;;;;5000091;28;20057;-71
2022/11/19 10:44:48;;;;;;;4.47;3.42;;;;;;;;;;4974914;28;20472;-71
2022/11/19 10:47:18;;;;;;;9.60;8.73;;;;;;;;;;4989401;28;20034;-70
2022/11/19 10:49:44;;;;;;;30.10;25.02;;;;;;;;;;4988670;28;20053;-71
2022/11/19 10:52:19;;;;;;;5.75;5.05;;;;;;;;;;4988586;28;20022;-71
2022/11/19 10:54:45;;;;;;;13.23;10.05;;;;;;;;;;5000286;28;20046;-72
2022/11/19 10:57:14;;;;;;;10.60;9.57;;;;;;;;;;4990650;28;20377;-70
2022/11/19 10:59:39;;;;;;;13.55;12.25;;;;;;;;;;5002260;28;20033;-70
2022/11/19 11:02:15;;;;;;;12.70;8.63;;;;;;;;;;5001679;28;20033;-70
2022/11/19 11:04:58;;;;;;;55.60;41.55;;;;;;;;;;5002877;28;20485;-70
2022/11/19 11:07:43;;;;;;;94.57;69.50;;;;;;;;;;5008567;28;20386;-70
2022/11/19 11:10:24;;;;;;;52.75;40.25;;;;;;;;;;5080516;28;20032;-70
2022/11/19 11:15:33;;;;;;;43.13;35.20;;;;;;;;;;5079655;28;20121;-70
2022/11/19 11:18:03;;;;;;;36.65;28.15;;;;;;;;;;5080809;28;21638;-71
2022/11/19 11:20:29;;;;;;;42.25;34.10;;;;;;;;;;5079424;28;20123;-69
2022/11/19 11:23:03;;;;;;;57.58;47.33;;;;;;;;;;5080328;28;20446;-69
2022/11/19 11:25:29;;;;;;;26.85;23.77;;;;;;;;;;5082291;28;20164;-71
2022/11/19 11:28:03;;;;;;;34.88;29.10;;;;;;;;;;5079992;28;20466;-71
2022/11/19 11:30:29;;;;;;;22.27;19.80;;;;;;;;;;5081794;28;20031;-71
2022/11/19 11:32:54;;;;;;;45.63;40.83;;;;;;;;;;5082596;28;20012;-70
2022/11/19 11:35:29;;;;;;;31.70;28.30;;;;;;;;;;5079903;28;20030;-70
2022/11/19 11:37:55;;;;;;;29.52;26.42;;;;;;;;;;5079598;28;20047;-70
2022/11/19 11:40:22;;;;;;;18.73;16.73;;;;;;;;;;5079983;28;20062;-68
2022/11/19 11:42:47;;;;;;;15.73;14.18;;;;;;;;;;5080640;28;20036;-70
2022/11/19 11:45:21;;;;;;;13.77;11.82;;;;;;;;;;5081588;28;20024;-70
2022/11/19 11:47:46;;;;;;;16.38;14.65;;;;;;;;;;5081777;28;20024;-70
2022/11/19 11:50:18;;;;;;;66.10;55.22;;;;;;;;;;5079444;28;20035;-72
2022/11/19 11:52:46;;;;;;;55.60;47.70;;;;;;;;;;5080203;28;20031;-70
2022/11/19 11:55:23;;;;;;;44.75;39.80;;;;;;;;;;5081759;28;20061;-70
2022/11/19 11:57:50;;;;;;;31.75;28.75;;;;;;;;;;5076673;28;20032;-69
2022/11/19 12:00:27;;;;;;;18.60;16.90;;;;;;;;;;5079985;28;20435;-71
2022/11/19 12:03:00;;;;;;;25.10;22.92;;;;;;;;;;5081774;28;20020;-71
2022/11/19 12:05:27;;;;;;;12.50;11.20;;;;;;;;;;5079913;28;20522;-70
2022/11/19 12:08:03;;;;;;;27.15;21.35;;;;;;;;;;5077104;28;20031;-68
2022/11/19 12:10:35;;;;;;;18.40;15.85;;;;;;;;;;5078962;28;20028;-70
2022/11/19 12:13:19;;;;;;;13.45;11.27;;;;;;;;;;5075673;28;20024;-71
2022/11/19 12:15:47;;;;;;;14.75;10.40;;;;;;;;;;5069845;28;20058;-72
2022/11/19 12:18:28;;;;;;;12.40;10.15;;;;;;;;;;5072311;28;20072;-70
2022/11/19 12:21:20;;;;;;;12.68;11.20;;;;;;;;;;5071183;28;20024;-70
2022/11/19 12:23:55;;;;;;;17.98;12.02;;;;;;;;;;5078594;28;20047;-69
2022/11/19 12:26:26;;;;;;;15.00;10.43;;;;;;;;;;5083622;28;20028;-70
2022/11/19 12:29:01;;;;;;;14.27;11.23;;;;;;;;;;5081352;28;20444;-70
2022/11/19 12:31:29;;;;;;;11.13;8.45;;;;;;;;;;5081061;28;20024;-71
2022/11/19 12:34:14;;;;;;;15.30;11.10;;;;;;;;;;5072114;28;20123;-70
2022/11/19 12:36:55;;;;;;;12.50;10.75;;;;;;;;;;5079215;28;20118;-69
2022/11/19 12:39:21;;;;;;;14.68;12.77;;;;;;;;;;5080850;28;20059;-70
2022/11/19 12:41:59;;;;;;;18.88;15.43;;;;;;;;;;5079732;28;20077;-69
2022/11/19 12:44:24;;;;;;;28.63;24.83;;;;;;;;;;5080281;28;20063;-68
2022/11/19 12:46:54;;;;;;;14.05;11.43;;;;;;;;;;5078397;28;20058;-73
2022/11/19 12:49:20;;;;;;;17.70;14.07;;;;;;;;;;5079286;28;20040;-71
2022/11/19 12:51:51;;;;;;;22.38;16.20;;;;;;;;;;5081574;28;20024;-70
2022/11/19 12:54:35;;;;;;;36.45;24.38;;;;;;;;;;5078875;28;20040;-70
2022/11/19 12:57:06;;;;;;;63.95;45.00;;;;;;;;;;5078087;28;20044;-69
2022/11/19 12:59:32;;;;;;;45.75;35.03;;;;;;;;;;5079353;28;20032;-68
2022/11/19 13:01:58;;;;;;;30.00;23.83;;;;;;;;;;5076708;28;20093;-67
2022/11/19 13:04:31;;;;;;;33.78;22.85;;;;;;;;;;5080023;28;21300;-69
2022/11/19 13:06:58;;;;;;;208.32;155.20;;;;;;;;;;5079181;28;20352;-71
2022/11/19 13:09:29;;;;;;;40.90;32.53;;;;;;;;;;5069601;28;20391;-69
2022/11/19 13:11:59;;;;;;;47.47;31.95;;;;;;;;;;5079093;28;20020;-68
2022/11/19 13:14:24;;;;;;;;;;;;;;;;;;5079533;28;20031;-70
2022/11/19 13:16:50;;;;;;;145.80;86.03;;;;;;;;;;5078526;28;19908;-70
2022/11/19 13:19:30;;;;;;;80.72;49.72;;;;;;;;;;5068001;28;20076;-70
2022/11/19 13:21:58;;;;;;;86.28;59.58;;;;;;;;;;5080979;28;20043;-70
2022/11/19 13:24:26;;;;;;;25.25;18.50;;;;;;;;;;5080868;28;20090;-69
2022/11/19 13:26:54;;;;;;;15.57;13.52;;;;;;;;;;5078271;28;20063;-70
2022/11/19 13:29:26;;;;;;;36.50;28.77;;;;;;;;;;5079327;28;20032;-69
2022/11/19 13:31:54;;;;;;;31.20;24.48;;;;;;;;;;5079126;28;20070;-71
2022/11/19 13:34:55;;;;;;;42.08;30.70;;;;;;;;;;5078108;28;20602;-69
2022/11/19 13:37:40;;;;;;;29.58;24.48;;;;;;;;;;5051398;28;20066;-70
2022/11/19 13:40:13;;;;;;;42.70;34.22;;;;;;;;;;5039797;28;20040;-69
2022/11/19 13:45:22;;;;;;;79.75;62.33;;;;;;;;;;5073386;28;20039;-70
2022/11/19 13:47:52;;;;;;;103.07;78.28;;;;;;;;;;5068071;28;20016;-70
2022/11/19 13:50:20;;;;;;;121.18;90.30;;;;;;;;;;5067242;28;20024;-70
2022/11/19 13:53:12;;;;;;;94.13;69.40;;;;;;;;;;5068432;28;20415;-69
2022/11/19 13:55:39;;;;;;;75.25;56.55;;;;;;;;;;5004331;28;20038;-69
2022/11/19 13:58:25;;;;;;;57.88;46.10;;;;;;;;;;5003406;28;20445;-69
2022/11/19 14:01:13;;;;;;;92.35;74.80;;;;;;;;;;5004803;28;20034;-68
2022/11/19 14:03:47;;;;;;;321.50;205.55;;;;;;;;;;4984879;28;20037;-70
2022/11/19 14:06:24;;;;;;;78.55;53.33;;;;;;;;;;5004298;28;20144;-68
2022/11/19 14:08:52;;;;;;;72.20;53.33;;;;;;;;;;5004345;28;20040;-72
2022/11/19 14:11:29;;;;;;;119.72;78.50;;;;;;;;;;5000291;28;20072;-72
2022/11/19 14:14:04;;;;;;;44.85;31.67;;;;;;;;;;5003424;28;20041;-68
2022/11/19 14:27:33;;;;;;;76.35;52.83;;;;;;;;;;5002071;28;20083;-71
2022/11/19 14:30:00;;;;;;;81.95;63.40;;;;;;;;;;5004058;28;20412;-71
2022/11/19 14:32:31;;;;;;;33.20;26.88;;;;;;;;;;5025219;28;20048;-71
2022/11/19 14:35:00;;;;;;;27.63;23.45;;;;;;;;;;5048433;28;20029;-70
2022/11/19 14:37:31;;;;;;;35.63;28.52;;;;;;;;;;5049661;28;20430;-69
2022/11/19 14:40:01;;;;;;;49.15;38.70;;;;;;;;;;5051421;28;20147;-71
2022/11/19 14:42:26;;;;;;;68.72;55.72;;;;;;;;;;5050534;28;20032;-70
2022/11/19 14:45:04;;;;;;;50.25;38.90;;;;;;;;;;5049427;28;20024;-69
2022/11/19 14:47:39;;;;;;;35.00;28.10;;;;;;;;;;5050415;28;20109;-71
2022/11/19 14:50:09;;;;;;;17.13;15.15;;;;;;;;;;5051823;28;20074;-70
2022/11/19 14:52:54;;;;;;;20.83;18.83;;;;;;;;;;5049682;28;20036;-70
2022/11/19 14:55:25;;;;;;;10.30;8.20;;;;;;;;;;5050859;28;20459;-70
2022/11/19 14:57:58;;;;;;;11.65;10.48;;;;;;;;;;5047624;28;20046;-73
2022/11/19 15:00:24;;;;;;;14.18;12.68;;;;;;;;;;5050983;28;20028;-70
2022/11/19 15:02:50;;;;;;;15.20;13.73;;;;;;;;;;5050752;28;20060;-70